Time;durP1;ratioP1;P1;durP2;ratioP2;P2;SDS_P1;SDS_P2;PMS_P1;PMS_P2;Temp;Humidity;BMP_temperature;BMP_pressure;BME280_temperature;BME280_humidity;BME280_pressure;Samples;Min_cycle;Max_cycle;Signal;HPM_P1;HPM_P2
2021/07/25 00:01:29;;;;;;;;;;;;;;;29.63;42.02;100791.28;5096626;28;793;-32
2021/07/25 00:03:54;;;;;;;;;;;;;;;29.62;42.19;100787.72;5096680;28;867;-29
2021/07/25 00:06:20;;;;;;;;;;;;;;;29.65;41.85;100800.03;5096880;28;772;-29
2021/07/25 00:08:45;;;;;;;;;;;;;;;29.61;42.08;100798.78;5096081;28;740;-32
2021/07/25 00:11:10;;;;;;;;;;;;;;;29.61;42.09;100801.50;5096500;28;990;-32
2021/07/25 00:13:40;;;;;;;;;;;;;;;29.62;42.37;100803.16;5096371;28;913;-36
2021/07/25 00:16:06;;;;;;;;;;;;;;;29.68;41.91;100799.63;5096422;28;1956;-30
2021/07/25 00:18:31;;;;;;;;;;;;;;;29.65;42.11;100809.00;5096557;28;776;-32
2021/07/25 00:20:57;;;;;;;;;;;;;;;29.65;42.24;100806.31;5099457;28;882;-38
2021/07/25 00:23:24;;;;;;;;;;;;;;;29.63;42.12;100802.13;5100376;28;772;-30
2021/07/25 00:25:51;;;;;;;;;;;;;;;29.59;42.24;100809.81;5099742;28;958;-26
2021/07/25 00:28:18;;;;;;;;;;;;;;;29.58;42.22;100808.09;5100091;28;779;-39
2021/07/25 00:30:44;;;;;;;;;;;;;;;29.59;42.12;100804.41;5099921;28;1456;-29
2021/07/25 00:33:09;;;;;;;;;;;;;;;29.61;42.34;100807.75;5100221;28;776;-29
2021/07/25 00:35:35;;;;;;;;;;;;;;;29.63;42.14;100805.66;5099741;28;907;-31
2021/07/25 00:38:00;;;;;;;;;;;;;;;29.65;42.24;100805.47;5100257;28;1910;-25
2021/07/25 00:40:28;;;;;;;;;;;;;;;29.61;42.46;100805.03;5100183;28;819;-30
2021/07/25 00:42:53;;;;;;;;;;;;;;;29.63;42.35;100804.84;5099629;28;958;-32
2021/07/25 00:45:19;;;;;;;;;;;;;;;29.52;42.56;100796.19;5099966;28;799;-30
2021/07/25 00:47:44;;;;;;;;;;;;;;;29.58;42.24;100797.25;5099213;28;878;-31
2021/07/25 00:50:10;;;;;;;;;;;;;;;29.57;42.60;100803.72;5081772;28;771;-32
2021/07/25 00:52:36;;;;;;;;;;;;;;;29.54;42.57;100804.13;5082097;28;748;-40
2021/07/25 00:55:01;;;;;;;;;;;;;;;29.55;42.49;100803.91;5099500;28;1149;-32
2021/07/25 00:57:26;;;;;;;;;;;;;;;29.61;42.54;100812.34;5099367;28;1968;-34
2021/07/25 00:59:52;;;;;;;;;;;;;;;29.64;42.28;100809.22;5099599;28;800;-30
2021/07/25 01:02:17;;;;;;;;;;;;;;;29.57;42.60;100815.41;5099352;28;839;-35
2021/07/25 01:05:17;;;;;;;;;;;;;;;29.60;42.37;100818.78;5099481;28;779;-27
2021/07/25 01:08:01;;;;;;;;;;;;;;;29.50;42.79;100813.66;5017076;28;1269;-31
2021/07/25 01:10:27;;;;;;;;;;;;;;;29.54;42.61;100814.97;5092621;28;859;-38
2021/07/25 01:12:55;;;;;;;;;;;;;;;29.50;42.70;100811.81;5098951;28;951;-30
2021/07/25 01:15:21;;;;;;;;;;;;;;;29.57;42.80;100810.00;5099545;28;811;-31
2021/07/25 01:17:47;;;;;;;;;;;;;;;29.51;42.97;100816.19;5099243;28;1905;-38
2021/07/25 01:20:12;;;;;;;;;;;;;;;29.54;42.62;100810.38;5099408;28;755;-29
2021/07/25 01:22:41;;;;;;;;;;;;;;;29.58;42.62;100814.38;5099373;28;775;-32
2021/07/25 01:25:07;;;;;;;;;;;;;;;29.58;42.80;100816.22;5081029;28;733;-36
2021/07/25 01:27:34;;;;;;;;;;;;;;;29.58;42.75;100814.38;5066290;28;955;-32
2021/07/25 01:29:59;;;;;;;;;;;;;;;29.66;42.56;100818.81;5060200;28;919;-31
2021/07/25 01:32:27;;;;;;;;;;;;;;;29.60;42.71;100816.06;5060789;28;1075;-32
2021/07/25 01:34:53;;;;;;;;;;;;;;;29.76;42.41;100810.31;5078821;28;887;-31
2021/07/25 01:37:18;;;;;;;;;;;;;;;29.57;42.78;100812.69;5059602;28;1965;-32
2021/07/25 01:39:44;;;;;;;;;;;;;;;29.56;43.04;100815.63;5060832;28;764;-31
2021/07/25 01:42:09;;;;;;;;;;;;;;;29.58;42.63;100817.06;5089464;28;958;-32
2021/07/25 01:44:34;;;;;;;;;;;;;;;29.55;42.90;100817.47;5098965;28;792;-31
2021/07/25 01:46:59;;;;;;;;;;;;;;;29.56;42.85;100816.44;5098522;28;930;-31
2021/07/25 01:49:25;;;;;;;;;;;;;;;29.65;42.64;100821.72;5098780;28;823;-31
2021/07/25 01:51:50;;;;;;;;;;;;;;;29.64;42.86;100822.78;5098487;28;791;-33
2021/07/25 01:54:15;;;;;;;;;;;;;;;29.73;42.43;100823.47;5098583;28;1318;-32
2021/07/25 01:56:40;;;;;;;;;;;;;;;29.60;43.08;100821.47;5097928;28;1984;-39
2021/07/25 01:59:06;;;;;;;;;;;;;;;29.57;42.90;100825.41;5098337;28;771;-33
2021/07/25 02:01:31;;;;;;;;;;;;;;;29.57;42.85;100823.53;5098526;28;874;-32
2021/07/25 02:03:56;;;;;;;;;;;;;;;29.66;42.90;100824.22;5098900;28;811;-38
2021/07/25 02:06:22;;;;;;;;;;;;;;;29.62;42.65;100822.97;5098209;28;823;-31
2021/07/25 02:08:48;;;;;;;;;;;;;;;29.67;42.58;100823.22;5098198;28;842;-32
2021/07/25 02:11:13;;;;;;;;;;;;;;;29.71;42.57;100823.66;5098429;28;1002;-33
2021/07/25 02:13:39;;;;;;;;;;;;;;;29.69;42.58;100820.31;5097806;28;795;-32
2021/07/25 02:16:04;;;;;;;;;;;;;;;29.73;42.65;100820.75;5098211;28;1909;-40
2021/07/25 02:18:29;;;;;;;;;;;;;;;29.74;42.42;100817.00;5097524;28;991;-27
2021/07/25 02:20:55;;;;;;;;;;;;;;;29.69;42.69;100817.59;5098020;28;740;-30
2021/07/25 02:23:20;;;;;;;;;;;;;;;29.62;43.06;100822.97;5098231;28;855;-31
2021/07/25 02:25:45;;;;;;;;;;;;;;;29.73;42.83;100823.47;5098755;28;755;-26
2021/07/25 02:28:10;;;;;;;;;;;;;;;29.65;42.77;100816.31;5097615;28;955;-31
2021/07/25 02:30:36;;;;;;;;;;;;;;;29.58;42.91;100811.66;5097792;28;811;-31
2021/07/25 02:33:01;;;;;;;;;;;;;;;29.64;42.89;100814.63;5097982;28;858;-32
2021/07/25 02:35:26;;;;;;;;;;;;;;;29.64;42.86;100814.63;5097430;28;910;-39
2021/07/25 02:37:52;;;;;;;;;;;;;;;29.61;43.13;100815.88;5097644;28;1897;-28
2021/07/25 02:40:17;;;;;;;;;;;;;;;29.61;43.06;100813.19;5097781;28;755;-37
2021/07/25 02:42:43;;;;;;;;;;;;;;;29.55;42.98;100819.34;5097008;28;943;-32
2021/07/25 02:45:08;;;;;;;;;;;;;;;29.62;42.86;100822.97;5097198;28;797;-31
2021/07/25 02:47:33;;;;;;;;;;;;;;;29.61;42.77;100824.03;5097439;28;732;-37
2021/07/25 02:49:59;;;;;;;;;;;;;;;29.61;42.87;100823.19;5097186;28;784;-31
2021/07/25 02:52:24;;;;;;;;;;;;;;;29.69;42.66;100826.56;5097660;28;820;-31
2021/07/25 02:54:49;;;;;;;;;;;;;;;29.78;42.41;100829.13;5097310;28;1364;-30
2021/07/25 02:57:14;;;;;;;;;;;;;;;29.76;42.04;100828.47;5096943;28;1909;-32
2021/07/25 02:59:40;;;;;;;;;;;;;;;29.61;42.65;100832.16;5097340;28;768;-37
2021/07/25 03:02:05;;;;;;;;;;;;;;;29.49;42.81;100828.25;5097063;28;751;-29
2021/07/25 03:04:30;;;;;;;;;;;;;;;29.48;43.44;100832.03;5097454;28;1169;-31
2021/07/25 03:06:56;;;;;;;;;;;;;;;29.60;43.49;100835.03;5097444;28;760;-39
2021/07/25 03:09:21;;;;;;;;;;;;;;;29.50;43.77;100835.34;5096715;28;767;-39
2021/07/25 03:11:46;;;;;;;;;;;;;;;29.42;43.86;100839.06;5096988;28;1054;-40
2021/07/25 03:14:11;;;;;;;;;;;;;;;29.49;43.87;100833.69;5097295;28;803;-31
2021/07/25 03:16:37;;;;;;;;;;;;;;;29.51;43.87;100835.16;5096947;28;1962;-39
2021/07/25 03:19:02;;;;;;;;;;;;;;;29.49;43.88;100823.69;5096698;28;823;-27
2021/07/25 03:21:27;;;;;;;;;;;;;;;29.52;43.85;100826.00;5097085;28;808;-33
2021/07/25 03:23:53;;;;;;;;;;;;;;;29.56;43.81;100829.16;5096487;28;839;-39
2021/07/25 03:26:18;;;;;;;;;;;;;;;29.48;44.08;100830.13;5096467;28;990;-28
2021/07/25 03:28:43;;;;;;;;;;;;;;;29.56;43.77;100826.44;5097039;28;772;-27
2021/07/25 03:31:08;;;;;;;;;;;;;;;29.60;43.73;100829.59;5096993;28;827;-26
2021/07/25 03:33:34;;;;;;;;;;;;;;;29.58;43.83;100830.63;5097348;28;787;-30
2021/07/25 03:35:59;;;;;;;;;;;;;;;29.62;43.72;100841.09;5096879;28;1902;-26
2021/07/25 03:38:25;;;;;;;;;;;;;;;29.39;39.69;100834.88;5097104;28;756;-38
2021/07/25 03:40:51;;;;;;;;;;;;;;;29.02;38.41;100832.28;5096605;28;1009;-38
2021/07/25 03:43:16;;;;;;;;;;;;;;;28.82;37.49;100840.16;5096708;28;756;-38
2021/07/25 03:45:42;;;;;;;;;;;;;;;28.68;38.70;100842.72;5097105;28;821;-35
2021/07/25 03:48:07;;;;;;;;;;;;;;;28.32;37.81;100836.25;5096594;28;800;-34
2021/07/25 03:50:33;;;;;;;;;;;;;;;28.12;36.33;100836.00;5096775;28;764;-36
2021/07/25 03:52:58;;;;;;;;;;;;;;;28.12;35.74;100836.00;5078749;28;1153;-27
2021/07/25 03:55:24;;;;;;;;;;;;;;;28.10;35.28;100840.75;5080597;28;835;-39
2021/07/25 03:57:49;;;;;;;;;;;;;;;27.99;35.46;100842.06;5099993;28;1983;-29
2021/07/25 04:00:14;;;;;;;;;;;;;;;28.39;35.90;100841.78;5100975;28;803;-30
2021/07/25 04:02:40;;;;;;;;;;;;;;;28.55;34.94;100843.44;5100908;28;879;-34
2021/07/25 04:05:05;;;;;;;;;;;;;;;28.47;35.02;100847.09;5100646;28;854;-29
2021/07/25 04:07:30;;;;;;;;;;;;;;;28.50;33.68;100850.41;5100700;28;904;-31
2021/07/25 04:09:56;;;;;;;;;;;;;;;28.40;33.72;100851.56;5099723;28;1338;-35
2021/07/25 04:12:21;;;;;;;;;;;;;;;28.55;33.54;100856.97;5100232;28;930;-32
2021/07/25 04:14:46;;;;;;;;;;;;;;;28.39;33.58;100852.63;5100510;28;851;-32
2021/07/25 04:17:12;;;;;;;;;;;;;;;28.25;33.87;100856.97;5100817;28;1962;-31
2021/07/25 04:19:37;;;;;;;;;;;;;;;28.07;34.22;100855.50;5099822;28;800;-34
2021/07/25 04:22:02;;;;;;;;;;;;;;;25.42;39.41;100854.91;5101173;28;826;-31
2021/07/25 04:24:28;;;;;;;;;;;;;;;21.59;44.16;100849.16;5100426;28;775;-28
2021/07/25 04:26:53;;;;;;;;;;;;;;;21.38;51.05;100853.72;5099841;28;955;-31
2021/07/25 04:29:18;;;;;;;;;;;;;;;21.25;52.19;100862.00;5100315;28;890;-29
2021/07/25 04:31:44;;;;;;;;;;;;;;;20.96;52.91;100857.50;5100058;28;815;-29
2021/07/25 04:34:09;;;;;;;;;;;;;;;20.68;53.83;100867.97;5100196;28;752;-26
2021/07/25 04:36:35;;;;;;;;;;;;;;;20.62;54.45;100865.84;5100202;28;1926;-28
2021/07/25 04:39:00;;;;;;;;;;;;;;;20.65;54.60;100873.59;5099732;28;800;-27
2021/07/25 04:41:28;;;;;;;;;;;;;;;20.45;55.64;100870.84;5099294;28;1010;-27
2021/07/25 04:44:13;;;;;;;;;;;;;;;22.51;52.29;100873.59;5081704;28;1512;-29
2021/07/25 04:46:41;;;;;;;;;;;;;;;23.85;44.20;100873.06;5099450;28;1596;-24
2021/07/25 04:49:07;;;;;;;;;;;;;;;21.09;53.29;100872.41;5099641;28;851;-29
2021/07/25 04:51:32;;;;;;;;;;;;;;;20.58;55.26;100875.09;5099846;28;795;-27
2021/07/25 04:54:07;;;;;;;;;;;;;;;20.37;55.95;100874.19;5091164;28;1278;-26
2021/07/25 04:56:35;;;;;;;;;;;;;;;20.24;56.77;100874.41;5112793;28;1914;-24
2021/07/25 04:59:02;;;;;;;;;;;;;;;20.27;57.00;100878.66;5080564;28;855;-26
2021/07/25 05:01:29;;;;;;;;;;;;;;;22.32;52.99;100874.50;5098300;28;792;-29
2021/07/25 05:03:55;;;;;;;;;;;;;;;24.59;45.61;100889.72;5098578;28;791;-42
2021/07/25 05:06:22;;;;;;;;;;;;;;;20.92;54.69;100889.00;5097278;28;732;-26
2021/07/25 05:08:47;;;;;;;;;;;;;;;20.29;56.57;100876.66;5080748;28;760;-28
2021/07/25 05:11:24;;;;;;;;;;;;;;;20.23;57.28;100877.22;5101091;28;1475;-29
2021/07/25 05:13:50;;;;;;;;;;;;;;;20.07;57.53;100878.53;5118568;28;851;-26
2021/07/25 05:16:35;;;;;;;;;;;;;;;20.02;57.97;100880.75;5118705;28;1976;-27
2021/07/25 05:19:05;;;;;;;;;;;;;;;21.71;55.52;100879.31;5103989;28;1626;-29
2021/07/25 05:21:30;;;;;;;;;;;;;;;24.37;46.40;100889.31;5118340;28;807;-27
2021/07/25 05:23:55;;;;;;;;;;;;;;;21.31;52.42;100889.19;5100519;28;823;-26
2021/07/25 05:26:25;;;;;;;;;;;;;;;20.50;55.74;100891.81;5099752;28;1017;-25
2021/07/25 05:28:53;;;;;;;;;;;;;;;20.18;57.01;100889.16;5118494;28;899;-28
2021/07/25 05:31:18;;;;;;;;;;;;;;;19.93;57.68;100887.72;5100128;28;771;-26
2021/07/25 05:33:43;;;;;;;;;;;;;;;19.89;58.19;100899.63;5118585;28;859;-26
2021/07/25 05:36:09;;;;;;;;;;;;;;;20.47;57.60;100892.09;5118209;28;1905;-25
2021/07/25 05:38:34;;;;;;;;;;;;;;;23.32;49.64;100897.09;5118385;28;804;-27
2021/07/25 05:40:59;;;;;;;;;;;;;;;23.36;46.85;100901.16;5116523;28;961;-25
2021/07/25 05:43:24;;;;;;;;;;;;;;;20.55;55.73;100908.31;5097611;28;928;-31
2021/07/25 05:45:50;;;;;;;;;;;;;;;20.03;57.24;100902.00;5097957;28;795;-26
2021/07/25 05:48:15;;;;;;;;;;;;;;;19.83;57.87;100911.69;5097722;28;728;-32
2021/07/25 05:50:40;;;;;;;;;;;;;;;19.82;58.08;100910.81;5097707;28;810;-25
2021/07/25 05:53:06;;;;;;;;;;;;;;;19.78;58.42;100909.41;5055682;28;1189608;-29
2021/07/25 05:55:32;;;;;;;;;;;;;;;21.43;56.12;100916.66;5098297;28;840;-27
2021/07/25 05:57:57;;;;;;;;;;;;;;;23.93;47.49;100909.03;5115807;28;1996;-34
2021/07/25 06:00:23;;;;;;;;;;;;;;;20.93;54.16;100913.94;5118821;28;903;-28
2021/07/25 06:02:51;;;;;;;;;;;;;;;20.05;57.10;100908.03;5118372;28;791;-28
2021/07/25 06:05:16;;;;;;;;;;;;;;;19.76;58.17;100915.84;5118765;28;903;-30
2021/07/25 06:07:41;;;;;;;;;;;;;;;19.79;58.25;100912.91;5118201;28;1538;-28
2021/07/25 06:10:07;;;;;;;;;;;;;;;19.72;58.64;100911.75;5118123;28;790;-34
2021/07/25 06:12:32;;;;;;;;;;;;;;;20.90;57.82;100911.50;5118017;28;950;-27
2021/07/25 06:14:58;;;;;;;;;;;;;;;23.63;48.34;100914.69;5118481;28;855;-27
2021/07/25 06:17:23;;;;;;;;;;;;;;;20.64;54.41;100910.16;5117280;28;1901;-27
2021/07/25 06:19:48;;;;;;;;;;;;;;;19.82;55.86;100905.47;5118662;28;839;-30
2021/07/25 06:22:13;;;;;;;;;;;;;;;21.76;53.08;100909.19;5118184;28;926;-25
2021/07/25 06:24:39;;;;;;;;;;;;;;;23.66;46.82;100897.41;5118431;28;843;-27
2021/07/25 06:27:04;;;;;;;;;;;;;;;20.59;55.41;100896.34;5118263;28;1001;-28
2021/07/25 06:29:29;;;;;;;;;;;;;;;20.01;57.64;100895.06;5118075;28;787;-33
2021/07/25 06:31:54;;;;;;;;;;;;;;;19.75;58.48;100904.28;5117751;28;744;-31
2021/07/25 06:34:20;;;;;;;;;;;;;;;19.70;58.66;100903.88;5118176;28;831;-27
2021/07/25 06:36:45;;;;;;;;;;;;;;;20.83;57.99;100903.19;5117705;28;1909;-27
2021/07/25 06:39:10;;;;;;;;;;;;;;;23.62;48.39;100902.25;5117715;28;819;-26
2021/07/25 06:41:36;;;;;;;;;;;;;;;20.79;55.27;100894.59;5117589;28;1013;-27
2021/07/25 06:44:01;;;;;;;;;;;;;;;19.93;57.96;100893.06;5117583;28;831;-26
2021/07/25 06:46:27;;;;;;;;;;;;;;;19.77;58.76;100894.34;5117659;28;791;-26
2021/07/25 06:48:52;;;;;;;;;;;;;;;19.73;58.73;100892.94;5117454;28;810;-34
2021/07/25 06:51:17;;;;;;;;;;;;;;;19.67;59.31;100890.75;5117800;28;879;-26
2021/07/25 06:53:43;;;;;;;;;;;;;;;20.55;58.74;100897.63;5108524;28;1094;-25
2021/07/25 06:56:08;;;;;;;;;;;;;;;23.47;49.10;100897.44;5096932;28;1922;-29
2021/07/25 06:58:33;;;;;;;;;;;;;;;20.98;54.91;100897.47;5097165;28;835;-31
2021/07/25 07:00:59;;;;;;;;;;;;;;;20.18;57.71;100893.66;5078756;28;1270;-30
2021/07/25 07:03:24;;;;;;;;;;;;;;;19.92;58.82;100900.22;5097126;28;771;-31
2021/07/25 07:05:49;;;;;;;;;;;;;;;19.85;59.05;100906.22;5096470;28;1400;-36
2021/07/25 07:08:15;;;;;;;;;;;;;;;19.69;59.74;100905.69;5096597;28;1034;-32
2021/07/25 07:10:41;;;;;;;;;;;;;;;20.25;59.04;100905.47;5097392;28;792;-31
2021/07/25 07:13:07;;;;;;;;;;;;;;;23.26;50.45;100910.28;5096654;28;812;-28
2021/07/25 07:15:33;;;;;;;;;;;;;;;21.13;54.27;100908.63;5096724;28;800;-28
2021/07/25 07:17:58;;;;;;;;;;;;;;;19.90;56.92;100906.66;5096609;28;1963;-27
2021/07/25 07:20:24;;;;;;;;;;;;;;;20.89;58.06;100913.31;5096664;28;895;-32
2021/07/25 07:22:52;;;;;;;;;;;;;;;23.69;47.69;100915.91;5096463;28;843;-29
2021/07/25 07:25:18;;;;;;;;;;;;;;;20.89;55.34;100912.47;5096855;28;756;-31
2021/07/25 07:27:43;;;;;;;;;;;;;;;20.13;57.48;100911.88;5096327;28;951;-30
2021/07/25 07:30:08;;;;;;;;;;;;;;;19.85;58.29;100909.72;5097103;28;800;-31
2021/07/25 07:32:34;;;;;;;;;;;;;;;19.73;58.64;100913.44;5096639;28;728;-28
2021/07/25 07:34:59;;;;;;;;;;;;;;;19.80;58.58;100914.63;5096545;28;779;-27
2021/07/25 07:37:24;;;;;;;;;;;;;;;20.12;58.74;100912.88;5096610;28;1964;-28
2021/07/25 07:39:50;;;;;;;;;;;;;;;23.08;49.77;100919.19;5096325;28;759;-31
2021/07/25 07:42:15;;;;;;;;;;;;;;;20.93;53.18;100924.63;5096516;28;962;-32
2021/07/25 07:44:40;;;;;;;;;;;;;;;19.81;55.71;100924.31;5096510;28;791;-27
2021/07/25 07:47:06;;;;;;;;;;;;;;;23.03;48.39;100924.16;5096742;28;835;-28
2021/07/25 07:49:31;;;;;;;;;;;;;;;21.68;51.32;100919.75;5096532;28;858;-28
2021/07/25 07:51:56;;;;;;;;;;;;;;;20.15;55.89;100917.94;5096621;28;795;-28
2021/07/25 07:54:21;;;;;;;;;;;;;;;19.73;56.86;100916.94;5095839;28;1350;-29
2021/07/25 07:56:47;;;;;;;;;;;;;;;19.66;57.25;100926.44;5096264;28;1922;-30
2021/07/25 07:59:12;;;;;;;;;;;;;;;19.48;58.17;100929.66;5096708;28;836;-30
2021/07/25 08:01:37;;;;;;;;;;;;;;;19.48;57.73;100926.16;5095983;28;1462;-34
2021/07/25 08:04:02;;;;;;;;;;;;;;;22.07;51.54;100918.91;5096875;28;785;-31
2021/07/25 08:06:28;;;;;;;;;;;;;;;22.86;47.22;100926.66;5096222;28;855;-30
2021/07/25 08:08:53;;;;;;;;;;;;;;;19.81;54.83;100925.16;5095869;28;755;-27
2021/07/25 08:11:18;;;;;;;;;;;;;;;21.28;53.56;100935.81;5092790;28;958;-32
2021/07/25 08:13:43;;;;;;;;;;;;;;;23.89;43.88;100934.53;5075649;28;817;-28
2021/07/25 08:16:09;;;;;;;;;;;;;;;20.54;53.15;100931.50;5075881;28;1901;-26
2021/07/25 08:18:34;;;;;;;;;;;;;;;19.81;55.34;100934.97;5076039;28;791;-26
2021/07/25 08:21:00;;;;;;;;;;;;;;;19.58;56.13;100929.75;5076394;28;767;-25
2021/07/25 08:23:25;;;;;;;;;;;;;;;19.41;56.69;100939.16;5075660;28;760;-27
2021/07/25 08:25:50;;;;;;;;;;;;;;;19.36;57.00;100930.66;5076147;28;875;-27
2021/07/25 08:28:16;;;;;;;;;;;;;;;20.60;55.71;100931.94;5096248;28;959;-29
2021/07/25 08:30:41;;;;;;;;;;;;;;;23.44;45.28;100929.94;5096319;28;847;-34
2021/07/25 08:33:06;;;;;;;;;;;;;;;20.39;52.36;100932.81;5095967;28;748;-28
2021/07/25 08:35:31;;;;;;;;;;;;;;;20.79;54.28;100932.00;5095972;28;812;-27
2021/07/25 08:37:57;;;;;;;;;;;;;;;23.59;44.75;100930.25;5095926;28;1902;-32
2021/07/25 08:40:22;;;;;;;;;;;;;;;20.61;51.39;100934.47;5096789;28;717;-28
2021/07/25 08:43:08;;;;;;;;;;;;;;;19.65;54.21;100933.59;5099711;28;954;-30
2021/07/25 08:45:34;;;;;;;;;;;;;;;23.30;45.62;100935.84;5098701;28;1095;-27
2021/07/25 08:48:00;;;;;;;;;;;;;;;21.16;50.79;100943.09;5099381;28;847;-32
2021/07/25 08:50:27;;;;;;;;;;;;;;;20.05;54.55;100939.25;5099397;28;855;-28
2021/07/25 08:52:53;;;;;;;;;;;;;;;19.65;55.74;100938.91;5099462;28;1229;-28
2021/07/25 08:55:19;;;;;;;;;;;;;;;19.49;56.27;100939.34;5099748;28;732;-29
2021/07/25 08:57:45;;;;;;;;;;;;;;;19.47;56.40;100935.97;5082949;28;1921;-30
2021/07/25 09:00:11;;;;;;;;;;;;;;;19.36;56.79;100931.53;5079490;28;752;-31
2021/07/25 09:02:37;;;;;;;;;;;;;;;22.53;48.39;100936.94;5079576;28;764;-33
2021/07/25 09:05:02;;;;;;;;;;;;;;;21.64;48.44;100940.59;5078983;28;775;-28
2021/07/25 09:07:29;;;;;;;;;;;;;;;19.63;53.72;100938.22;5078907;28;772;-26
2021/07/25 09:09:55;;;;;;;;;;;;;;;22.75;46.05;100939.25;5078933;28;815;-27
2021/07/25 09:12:20;;;;;;;;;;;;;;;21.61;47.41;100944.41;5091197;28;959;-30
2021/07/25 09:14:47;;;;;;;;;;;;;;;19.78;52.38;100940.59;5099342;28;806;-30
2021/07/25 09:17:12;;;;;;;;;;;;;;;21.85;49.54;100948.53;5099077;28;1909;-25
2021/07/25 09:20:07;;;;;;;;;;;;;;;24.02;43.85;100944.84;5099356;28;752;-27
2021/07/25 09:22:32;;;;;;;;;;;;;;;20.46;52.81;100946.50;5081069;28;1645;-34
2021/07/25 09:24:57;;;;;;;;;;;;;;;19.91;55.10;100948.41;5098696;28;546;-26
2021/07/25 09:27:25;;;;;;;;;;;;;;;19.68;55.96;100952.03;5098516;28;1010;-26
2021/07/25 09:29:51;;;;;;;;;;;;;;;19.75;56.37;100944.34;5099030;28;756;-30
2021/07/25 09:32:16;;;;;;;;;;;;;;;19.72;57.24;100949.09;5098751;28;850;-26
2021/07/25 09:34:42;;;;;;;;;;;;;;;21.51;53.90;100940.88;5098540;28;771;-26
2021/07/25 09:37:08;;;;;;;;;;;;;;;23.93;44.28;100949.31;5098477;28;1909;-31
2021/07/25 09:39:43;;;;;;;;;;;;;;;20.27;53.56;100948.13;5098505;28;819;-29
2021/07/25 09:42:09;;;;;;;;;;;;;;;20.32;55.83;100948.53;5095181;28;974;-29
2021/07/25 09:44:44;;;;;;;;;;;;;;;23.35;45.37;100944.28;5098303;28;856;-27
2021/07/25 09:47:09;;;;;;;;;;;;;;;20.87;51.36;100951.88;5098320;28;819;-28
2021/07/25 09:49:41;;;;;;;;;;;;;;;19.97;54.31;100947.03;5079898;28;840;-30
2021/07/25 09:52:07;;;;;;;;;;;;;;;19.62;55.68;100946.38;5097465;28;876;-27
2021/07/25 09:54:32;;;;;;;;;;;;;;;19.50;55.90;100943.72;5092746;28;1083;-28
2021/07/25 09:57:26;;;;;;;;;;;;;;;19.37;56.52;100927.88;5097402;28;1979;-29
2021/07/25 09:59:55;;;;;;;;;;;;;;;20.36;55.10;100931.28;5080941;28;1476;-29
2021/07/25 10:02:38;;;;;;;;;;;;;;;23.38;44.92;100930.53;5097562;28;880;-29
2021/07/25 10:05:07;;;;;;;;;;;;;;;20.28;51.86;100931.09;5098206;28;893;-29
2021/07/25 10:07:34;;;;;;;;;;;;;;;20.26;54.17;100930.38;5098474;28;887;-30
2021/07/25 10:10:02;;;;;;;;;;;;;;;23.38;43.91;100932.38;5096253;28;1525;-26
2021/07/25 10:12:28;;;;;;;;;;;;;;;20.65;49.71;100933.22;5097467;28;827;-31
2021/07/25 10:14:53;;;;;;;;;;;;;;;20.03;52.72;100927.81;5098198;28;780;-25
2021/07/25 10:17:18;;;;;;;;;;;;;;;23.21;43.01;100933.06;5096100;28;1902;-28
2021/07/25 10:19:44;;;;;;;;;;;;;;;21.16;47.27;100937.75;5098607;28;756;-28
2021/07/25 10:22:10;;;;;;;;;;;;;;;19.54;51.50;100926.50;5096362;28;892;-25
2021/07/25 10:24:36;;;;;;;;;;;;;;;22.84;43.70;100934.84;5097942;28;791;-28
2021/07/25 10:27:01;;;;;;;;;;;;;;;21.81;45.01;100954.31;5097108;28;997;-30
2021/07/25 10:29:28;;;;;;;;;;;;;;;19.77;50.33;100937.06;5096712;28;744;-28
2021/07/25 10:31:53;;;;;;;;;;;;;;;22.60;44.26;100938.94;5097763;28;812;-28
2021/07/25 10:34:21;;;;;;;;;;;;;;;22.27;44.57;100935.78;5096642;28;517;-26
2021/07/25 10:36:48;;;;;;;;;;;;;;;20.39;50.20;100923.00;5097257;28;1963;-30
2021/07/25 10:39:13;;;;;;;;;;;;;;;19.89;52.10;100932.50;5097792;28;787;-27
2021/07/25 10:41:38;;;;;;;;;;;;;;;19.68;53.09;100932.50;5096044;28;930;-30
2021/07/25 10:44:03;;;;;;;;;;;;;;;19.50;53.75;100930.38;5096102;28;1270;-36
2021/07/25 10:46:30;;;;;;;;;;;;;;;19.51;53.79;100932.09;5097330;28;747;-28
2021/07/25 10:48:59;;;;;;;;;;;;;;;21.45;48.91;100933.44;5096506;28;805;-29
2021/07/25 10:51:25;;;;;;;;;;;;;;;23.74;41.46;100918.94;5096961;28;844;-32
2021/07/25 10:53:50;;;;;;;;;;;;;;;20.15;50.16;100920.63;5096736;28;1477;-32
2021/07/25 10:56:16;;;;;;;;;;;;;;;21.70;47.75;100932.03;5096377;28;1976;-33
2021/07/25 10:59:07;;;;;;;;;;;;;;;24.02;40.08;100924.22;5097363;28;827;-35
2021/07/25 11:01:41;;;;;;;;;;;;;;;20.06;50.10;100922.25;5093587;28;1366;-29
2021/07/25 11:04:07;;;;;;;;;;;;;;;22.17;45.97;100922.38;5096778;28;828;-31
2021/07/25 11:06:32;;;;;;;;;;;;;;;23.81;42.01;100937.97;5097246;28;697;-27
2021/07/25 11:08:57;;;;;;;;;;;;;;;20.60;49.85;100934.63;5078687;28;880;-31
2021/07/25 11:11:35;;;;;;;;;;;;;;;19.92;52.07;100934.06;5096740;28;959;-28
2021/07/25 11:14:04;;;;;;;;;;;;;;;19.62;53.40;100928.50;5096720;28;816;-31
2021/07/25 11:16:29;;;;;;;;;;;;;;;20.86;51.71;100926.13;5096401;28;1897;-31
2021/07/25 11:18:58;;;;;;;;;;;;;;;23.65;42.26;100934.19;5096504;28;807;-28
2021/07/25 11:21:39;;;;;;;;;;;;;;;20.59;49.49;100924.88;5096944;28;815;-31
2021/07/25 11:24:19;;;;;;;;;;;;;;;21.26;49.96;100919.91;5096680;28;855;-31
2021/07/25 11:26:47;;;;;;;;;;;;;;;24.06;40.82;100928.25;5096143;28;954;-29
2021/07/25 11:29:33;;;;;;;;;;;;;;;20.76;49.41;100926.09;5096982;28;771;-26
2021/07/25 11:32:01;;;;;;;;;;;;;;;19.99;52.28;100916.56;5082262;28;1518;-27
2021/07/25 11:34:34;;;;;;;;;;;;;;;19.70;53.14;100925.22;5096751;28;755;-27
2021/07/25 11:37:06;;;;;;;;;;;;;;;19.58;53.34;100916.41;5096443;28;1906;-31
2021/07/25 11:39:31;;;;;;;;;;;;;;;19.55;53.28;100925.50;5096604;28;768;-29
2021/07/25 11:41:57;;;;;;;;;;;;;;;21.95;47.21;100908.34;5096023;28;999;-33
2021/07/25 11:44:26;;;;;;;;;;;;;;;23.86;41.54;100916.88;5096441;28;803;-27
2021/07/25 11:46:51;;;;;;;;;;;;;;;20.09;50.51;100921.97;5096348;28;756;-31
2021/07/25 11:49:23;;;;;;;;;;;;;;;21.05;50.33;100917.34;5096871;28;811;-29
2021/07/25 11:52:08;;;;;;;;;;;;;;;23.83;41.39;100917.19;5096669;28;799;-30
2021/07/25 11:54:34;;;;;;;;;;;;;;;20.52;49.28;100916.59;5095190;28;1350;-29
2021/07/25 11:57:06;;;;;;;;;;;;;;;20.24;51.66;100905.59;5095742;28;1914;-26
2021/07/25 11:59:32;;;;;;;;;;;;;;;23.37;42.60;100910.06;5096520;28;763;-27
2021/07/25 12:01:57;;;;;;;;;;;;;;;21.17;46.94;100910.00;5096341;28;763;-33
2021/07/25 12:04:23;;;;;;;;;;;;;;;20.22;50.35;100905.75;5096790;28;779;-35
2021/07/25 12:07:02;;;;;;;;;;;;;;;19.77;51.90;100917.53;5096379;28;806;-28
2021/07/25 12:09:27;;;;;;;;;;;;;;;19.55;52.46;100911.34;5096584;28;799;-34
2021/07/25 12:12:01;;;;;;;;;;;;;;;19.51;52.75;100904.53;5096037;28;989;-31
2021/07/25 12:14:27;;;;;;;;;;;;;;;20.42;50.58;100906.69;5096304;28;768;-33
2021/07/25 12:16:52;;;;;;;;;;;;;;;23.34;40.92;100913.91;5099261;28;1959;-30
2021/07/25 12:19:18;;;;;;;;;;;;;;;20.65;47.22;100911.00;5100183;28;824;-32
2021/07/25 12:21:44;;;;;;;;;;;;;;;20.42;49.96;100913.84;5100201;28;826;-36
2021/07/25 12:24:45;;;;;;;;;;;;;;;23.45;40.12;100914.69;5099640;28;804;-26
2021/07/25 12:27:23;;;;;;;;;;;;;;;20.22;47.23;100907.59;5017526;28;1232;-27
2021/07/25 12:29:48;;;;;;;;;;;;;;;22.08;44.19;100899.13;5089827;28;955;-30
2021/07/25 12:32:23;;;;;;;;;;;;;;;23.29;39.82;100910.00;5100209;28;854;-29
2021/07/25 12:34:49;;;;;;;;;;;;;;;19.94;48.45;100903.59;5100017;28;862;-29
2021/07/25 12:37:30;;;;;;;;;;;;;;;21.74;45.69;100901.28;5099574;28;1903;-31
2021/07/25 12:40:02;;;;;;;;;;;;;;;23.39;40.85;100905.38;5099873;28;812;-28
2021/07/25 12:42:40;;;;;;;;;;;;;;;20.00;49.21;100893.38;5099954;28;1064;-30
2021/07/25 12:45:25;;;;;;;;;;;;;;;22.53;43.91;100904.75;5099640;28;822;-30
2021/07/25 12:48:09;;;;;;;;;;;;;;;21.96;44.02;100893.09;5099670;28;812;-31
2021/07/25 12:51:41;;;;;;;;;;;;;;;19.77;50.16;100904.19;5099508;28;760;-28
2021/07/25 12:53:44;;;;;;;;;;;;;;;23.00;42.81;100899.28;5088511;28;1566;-28
2021/07/25 12:56:09;;;;;;;;;;;;;;;21.19;45.89;100904.56;5099323;28;938;-28